createdAt,value
2023-02-02T00:01:01.250Z,2.80
2023-02-02T00:03:27.898Z,3.07
2023-02-02T00:05:54.822Z,3.20
2023-02-02T00:08:22.729Z,3.22
2023-02-02T00:10:50.623Z,3.03
2023-02-02T00:13:17.662Z,3.10
2023-02-02T00:15:44.634Z,3.06
2023-02-02T00:18:11.472Z,2.91
2023-02-02T00:20:38.325Z,3.09
2023-02-02T00:23:05.267Z,3.03
2023-02-02T00:25:32.436Z,3.05
2023-02-02T00:27:59.062Z,2.78
2023-02-02T00:30:25.664Z,3.08
2023-02-02T00:32:53.207Z,2.95
2023-02-02T00:35:19.932Z,2.95
2023-02-02T00:37:46.705Z,2.91
2023-02-02T00:40:13.776Z,2.52
2023-02-02T00:42:40.840Z,2.81
2023-02-02T00:45:17.098Z,2.40
2023-02-02T00:47:52.739Z,2.50
2023-02-02T00:50:20.969Z,2.20
2023-02-02T00:52:48.902Z,2.32
2023-02-02T00:55:16.849Z,2.66
2023-02-02T00:57:46.296Z,2.66
2023-02-02T01:00:16.374Z,2.71
2023-02-02T01:02:43.224Z,2.33
2023-02-02T01:05:11.788Z,2.78
2023-02-02T01:07:38.996Z,2.53
2023-02-02T01:10:07.299Z,2.34
2023-02-02T01:12:33.984Z,2.32
2023-02-02T01:15:01.776Z,2.43
2023-02-02T01:17:29.623Z,2.39
2023-02-02T01:19:56.387Z,2.62
2023-02-02T01:22:23.069Z,2.79
2023-02-02T01:24:49.792Z,2.45
2023-02-02T01:27:16.697Z,2.68
2023-02-02T01:29:43.465Z,2.25
2023-02-02T01:32:11.756Z,2.61
2023-02-02T01:34:41.861Z,2.51
2023-02-02T01:37:09.749Z,2.38
2023-02-02T01:39:36.720Z,2.24
2023-02-02T01:42:11.215Z,1.92
2023-02-02T01:44:52.914Z,2.20
2023-02-02T01:47:27.204Z,1.62
2023-02-02T01:49:55.488Z,1.93
2023-02-02T01:52:26.031Z,1.81
2023-02-02T01:55:00.112Z,1.87
2023-02-02T01:57:50.922Z,1.64
2023-02-02T02:00:24.907Z,1.75
2023-02-02T02:02:53.951Z,1.64
2023-02-02T02:05:27.794Z,1.68
2023-02-02T02:08:02.009Z,1.58
2023-02-02T02:10:28.603Z,1.02
2023-02-02T02:12:55.271Z,1.09
2023-02-02T02:15:40.918Z,1.58
2023-02-02T02:18:24.015Z,0.92
2023-02-02T02:21:12.327Z,1.56
2023-02-02T02:24:19.470Z,1.36
2023-02-02T02:26:52.283Z,1.32
2023-02-02T02:29:37.304Z,1.34
2023-02-02T02:32:23.570Z,1.24
2023-02-02T02:35:02.312Z,1.13
2023-02-02T02:37:52.939Z,1.12
2023-02-02T02:40:26.590Z,1.16
2023-02-02T02:42:59.202Z,0.84
2023-02-02T02:45:28.167Z,0.93
2023-02-02T02:47:55.338Z,0.73
2023-02-02T02:50:22.641Z,0.71
2023-02-02T02:53:05.667Z,0.40
2023-02-02T02:55:43.198Z,0.74
2023-02-02T02:58:27.105Z,1.09
2023-02-02T03:01:15.101Z,0.75
2023-02-02T03:03:56.966Z,1.12
2023-02-02T03:06:34.550Z,0.99
2023-02-02T03:09:07.497Z,1.00
2023-02-02T03:11:35.411Z,1.10
2023-02-02T03:14:02.431Z,1.07
2023-02-02T03:16:29.079Z,1.13
2023-02-02T03:18:56.898Z,1.18
2023-02-02T03:21:23.621Z,1.11
2023-02-02T03:23:50.311Z,1.00
2023-02-02T03:26:17.081Z,1.18
2023-02-02T03:28:43.899Z,1.05
2023-02-02T03:31:10.707Z,0.96
2023-02-02T03:33:38.663Z,0.96
2023-02-02T03:36:06.010Z,0.90
2023-02-02T03:38:32.726Z,0.75
2023-02-02T03:40:59.368Z,0.83
2023-02-02T03:43:26.231Z,0.71
2023-02-02T03:46:01.456Z,0.49
2023-02-02T03:48:28.389Z,0.40
2023-02-02T03:50:54.977Z,0.32
2023-02-02T03:53:22.677Z,0.08
2023-02-02T03:55:49.500Z,0.02
2023-02-02T03:58:17.625Z,-0.01
2023-02-02T04:00:44.234Z,-0.05
2023-02-02T04:03:10.826Z,-0.32
2023-02-02T04:05:37.549Z,-0.38
2023-02-02T04:08:04.274Z,-0.40
2023-02-02T04:10:30.841Z,-0.37
2023-02-02T04:12:57.677Z,-0.41
2023-02-02T04:15:24.562Z,-0.37
2023-02-02T04:17:51.339Z,-0.38
2023-02-02T04:20:18.072Z,-0.39
2023-02-02T04:22:44.644Z,-0.66
2023-02-02T04:25:11.282Z,-0.47
2023-02-02T04:27:37.950Z,-0.48
2023-02-02T04:30:05.870Z,-0.45
2023-02-02T04:32:32.631Z,-0.42
2023-02-02T04:34:59.269Z,-0.49
2023-02-02T04:37:25.967Z,-0.44
2023-02-02T04:39:53.862Z,-0.50
2023-02-02T04:42:20.526Z,-0.33
2023-02-02T04:44:47.191Z,-0.20
2023-02-02T04:47:13.860Z,-0.07
2023-02-02T04:49:40.516Z,-0.04
2023-02-02T04:52:07.215Z,-0.07
2023-02-02T04:54:34.484Z,0.11
2023-02-02T04:57:01.067Z,-0.06
2023-02-02T04:59:30.573Z,-0.46
2023-02-02T05:02:00.973Z,-0.92
2023-02-02T05:04:27.905Z,-0.99
2023-02-02T05:06:54.871Z,-0.94
2023-02-02T05:09:21.787Z,-0.77
2023-02-02T05:11:48.343Z,-0.81
2023-02-02T05:14:18.449Z,-0.39
2023-02-02T05:16:45.191Z,-0.41
2023-02-02T05:19:12.639Z,-0.25
2023-02-02T05:21:39.549Z,-0.31
2023-02-02T05:24:06.357Z,-0.34
2023-02-02T05:26:33.046Z,-0.19
2023-02-02T05:28:59.659Z,-0.08
2023-02-02T05:31:26.579Z,-0.07
2023-02-02T05:33:53.184Z,-0.01
2023-02-02T05:36:19.924Z,-0.22
2023-02-02T05:38:46.555Z,-0.22
2023-02-02T05:41:13.224Z,-0.49
2023-02-02T05:43:39.904Z,-0.30
2023-02-02T05:46:06.525Z,-0.52
2023-02-02T05:48:33.302Z,-0.65
2023-02-02T05:51:18.916Z,-0.56
2023-02-02T05:53:45.769Z,-0.56
2023-02-02T05:56:13.590Z,-0.64
2023-02-02T05:58:40.257Z,-0.43
2023-02-02T06:01:07.049Z,-0.40
2023-02-02T06:03:33.763Z,-0.29
2023-02-02T06:06:00.555Z,-0.30
2023-02-02T06:08:27.307Z,-0.41
2023-02-02T06:10:53.920Z,-0.53
2023-02-02T06:13:22.552Z,-0.56
2023-02-02T06:15:49.231Z,-0.72
2023-02-02T06:18:15.913Z,-0.45
2023-02-02T06:20:42.637Z,-0.23
2023-02-02T06:23:09.333Z,-0.02
2023-02-02T06:25:35.977Z,0.11
2023-02-02T06:28:02.663Z,0.11
2023-02-02T06:30:29.357Z,0.16
2023-02-02T06:32:56.057Z,-0.02
2023-02-02T06:35:23.113Z,-0.12
2023-02-02T06:37:49.971Z,0.16
2023-02-02T06:40:17.079Z,0.33
2023-02-02T06:42:43.716Z,0.37
2023-02-02T06:45:11.174Z,0.29
2023-02-02T06:47:37.814Z,-0.15
2023-02-02T06:50:05.010Z,0.56
2023-02-02T06:52:31.736Z,0.59
2023-02-02T06:54:58.298Z,0.70
2023-02-02T06:57:25.009Z,0.83
2023-02-02T06:59:52.353Z,0.92
2023-02-02T07:02:19.370Z,1.02
2023-02-02T07:04:46.185Z,1.16
2023-02-02T07:07:12.766Z,1.26
2023-02-02T07:09:39.517Z,1.16
2023-02-02T07:12:06.665Z,1.30
2023-02-02T07:14:33.329Z,1.38
2023-02-02T07:16:59.954Z,1.70
2023-02-02T07:19:26.627Z,1.76
2023-02-02T07:21:53.246Z,2.05
2023-02-02T07:24:19.887Z,2.24
2023-02-02T07:26:46.555Z,2.23
2023-02-02T07:29:16.639Z,2.63
2023-02-02T07:31:43.347Z,2.91
2023-02-02T07:34:10.212Z,2.97
2023-02-02T07:36:37.048Z,2.91
2023-02-02T07:39:05.389Z,3.25
2023-02-02T07:41:34.457Z,3.29
2023-02-02T07:44:01.858Z,3.38
2023-02-02T07:46:28.631Z,3.40
2023-02-02T07:48:56.260Z,2.88
2023-02-02T07:51:24.181Z,2.44
2023-02-02T07:53:53.270Z,2.38
2023-02-02T07:56:24.528Z,2.65
2023-02-02T07:58:53.017Z,2.95
2023-02-02T08:01:22.848Z,3.14
2023-02-02T08:03:50.706Z,3.58
2023-02-02T08:06:29.854Z,3.98
2023-02-02T08:08:56.883Z,4.06
2023-02-02T08:11:24.240Z,4.20
2023-02-02T08:13:57.191Z,4.47
2023-02-02T08:16:24.446Z,4.41
2023-02-02T08:18:51.913Z,4.15
2023-02-02T08:21:19.418Z,4.53
2023-02-02T08:23:46.733Z,4.44
2023-02-02T08:26:19.865Z,4.97
2023-02-02T08:28:49.003Z,5.00
2023-02-02T08:31:23.610Z,5.41
2023-02-02T08:33:50.970Z,6.10
2023-02-02T08:36:19.952Z,6.18
2023-02-02T08:38:47.044Z,6.41
2023-02-02T08:41:16.992Z,6.25
2023-02-02T08:43:44.235Z,6.25
2023-02-02T08:46:14.393Z,6.16
2023-02-02T08:48:41.933Z,5.85
2023-02-02T08:51:11.766Z,5.52
2023-02-02T08:53:38.653Z,5.65
2023-02-02T08:56:12.708Z,5.87
2023-02-02T08:58:39.753Z,6.18
2023-02-02T09:01:13.480Z,6.37
2023-02-02T09:03:40.474Z,6.24
2023-02-02T09:06:09.386Z,6.45
2023-02-02T09:08:36.560Z,6.35
2023-02-02T09:11:08.488Z,6.62
2023-02-02T09:13:36.833Z,6.20
2023-02-02T09:16:05.354Z,6.87
2023-02-02T09:18:32.537Z,6.55
2023-02-02T09:21:04.700Z,6.78
2023-02-02T09:23:32.764Z,6.69
2023-02-02T09:26:21.401Z,6.63
2023-02-02T09:28:51.772Z,6.34
2023-02-02T09:31:19.077Z,6.95
2023-02-02T09:33:46.057Z,6.79
2023-02-02T09:36:15.382Z,7.26
2023-02-02T09:38:43.785Z,7.67
2023-02-02T09:41:34.837Z,7.49
2023-02-02T09:44:07.499Z,7.52
2023-02-02T09:46:56.743Z,6.90
2023-02-02T09:49:52.358Z,7.61
2023-02-02T09:52:49.691Z,7.16
2023-02-02T09:55:35.335Z,7.15
2023-02-02T09:58:13.059Z,7.44
2023-02-02T10:00:48.529Z,7.34
2023-02-02T10:03:24.703Z,7.21
2023-02-02T10:06:34.400Z,7.55
2023-02-02T10:09:20.155Z,7.85
2023-02-02T10:12:00.349Z,7.99
2023-02-02T10:14:36.733Z,8.02
2023-02-02T10:17:30.178Z,7.71
2023-02-02T10:20:03.799Z,7.82
2023-02-02T10:22:33.989Z,8.29
2023-02-02T10:25:00.774Z,7.96
2023-02-02T10:27:38.456Z,8.35
2023-02-02T10:30:12.255Z,8.35
2023-02-02T10:33:01.324Z,8.46
2023-02-02T10:35:59.655Z,8.30
2023-02-02T10:38:32.388Z,7.59
2023-02-02T10:41:25.577Z,7.83
2023-02-02T10:44:01.939Z,7.48
2023-02-02T10:46:37.122Z,7.45
2023-02-02T10:49:21.544Z,7.90
2023-02-02T10:52:26.728Z,8.16
2023-02-02T10:55:21.413Z,8.12
2023-02-02T10:57:53.743Z,8.45
2023-02-02T11:00:23.279Z,8.40
2023-02-02T11:02:51.489Z,8.21
2023-02-02T11:05:44.644Z,8.04
2023-02-02T11:08:17.406Z,8.49
2023-02-02T11:10:46.137Z,8.62
2023-02-02T11:14:00.030Z,8.26
2023-02-02T11:16:42.524Z,8.26
2023-02-02T11:19:22.004Z,7.81
2023-02-02T11:21:53.101Z,8.28
2023-02-02T11:24:41.415Z,8.14
2023-02-02T11:27:15.577Z,8.19
2023-02-02T11:29:46.043Z,8.18
2023-02-02T11:32:35.364Z,8.37
2023-02-02T11:35:01.948Z,8.20
2023-02-02T11:37:29.491Z,8.17
2023-02-02T11:40:18.545Z,7.95
2023-02-02T11:42:47.847Z,8.90
2023-02-02T11:45:20.200Z,8.77
2023-02-02T11:47:47.024Z,8.12
2023-02-02T11:50:28.209Z,8.75
2023-02-02T11:52:55.550Z,8.65
2023-02-02T11:55:28.251Z,9.09
2023-02-02T11:58:46.935Z,9.37
2023-02-02T12:01:31.635Z,8.99
2023-02-02T12:04:22.126Z,8.75
2023-02-02T12:06:48.856Z,8.67
2023-02-02T12:09:21.664Z,7.90
2023-02-02T12:12:13.152Z,8.48
2023-02-02T12:15:00.799Z,7.89
2023-02-02T12:17:39.089Z,8.36
2023-02-02T12:20:08.382Z,8.23
2023-02-02T12:23:09.558Z,7.72
2023-02-02T12:26:00.476Z,8.24
2023-02-02T12:28:58.407Z,8.22
2023-02-02T12:31:40.341Z,8.20
2023-02-02T12:34:18.956Z,8.29
2023-02-02T12:36:51.682Z,8.31
2023-02-02T12:39:26.869Z,8.35
2023-02-02T12:42:31.343Z,8.31
2023-02-02T12:45:18.926Z,8.16
2023-02-02T12:47:58.821Z,8.09
2023-02-02T12:50:35.722Z,8.09
2023-02-02T12:53:22.978Z,7.98
2023-02-02T12:56:17.175Z,7.76
2023-02-02T12:59:01.869Z,7.89
2023-02-02T13:01:39.305Z,7.85
2023-02-02T13:04:27.546Z,7.79
2023-02-02T13:07:05.653Z,7.95
2023-02-02T13:09:58.713Z,7.78
2023-02-02T13:12:26.878Z,7.95
2023-02-02T13:14:58.629Z,8.25
2023-02-02T13:17:37.146Z,8.41
2023-02-02T13:20:14.297Z,8.25
2023-02-02T13:22:44.435Z,8.15
2023-02-02T13:25:25.172Z,8.09
2023-02-02T13:27:52.929Z,8.46
2023-02-02T13:30:38.715Z,8.07
2023-02-02T13:33:21.344Z,8.46
2023-02-02T13:35:58.054Z,8.07
2023-02-02T13:38:27.783Z,7.91
2023-02-02T13:40:57.380Z,8.19
2023-02-02T13:43:42.758Z,8.13
2023-02-02T13:46:27.674Z,7.97
2023-02-02T13:49:01.319Z,7.73
2023-02-02T13:51:51.225Z,7.89
2023-02-02T13:54:39.785Z,8.06
2023-02-02T13:57:30.885Z,8.16
2023-02-02T14:00:19.700Z,7.70
2023-02-02T14:03:10.921Z,7.27
2023-02-02T14:05:41.501Z,6.35
2023-02-02T14:08:24.776Z,6.18
2023-02-02T14:10:54.655Z,6.80
2023-02-02T14:13:46.825Z,6.82
2023-02-02T14:16:44.680Z,6.20
2023-02-02T14:19:34.896Z,6.49
2023-02-02T14:22:21.791Z,6.15
2023-02-02T14:24:54.006Z,5.16
2023-02-02T14:27:29.679Z,5.26
2023-02-02T14:29:56.288Z,5.01
2023-02-02T14:32:28.747Z,5.03
2023-02-02T14:34:56.786Z,4.90
2023-02-02T14:37:29.084Z,4.73
2023-02-02T14:40:10.869Z,4.69
2023-02-02T14:43:24.151Z,4.62
2023-02-02T14:46:12.991Z,4.45
2023-02-02T14:48:48.357Z,3.90
2023-02-02T14:51:21.358Z,3.40
2023-02-02T14:54:01.241Z,2.26
2023-02-02T14:56:46.928Z,2.45
2023-02-02T14:59:20.337Z,2.05
2023-02-02T15:01:59.490Z,1.83
2023-02-02T15:04:27.649Z,1.60
2023-02-02T15:06:55.651Z,1.73
2023-02-02T15:09:33.622Z,1.96
2023-02-02T15:12:03.030Z,1.90
2023-02-02T15:14:35.898Z,1.87
2023-02-02T15:17:35.107Z,1.76
2023-02-02T15:20:06.844Z,1.57
2023-02-02T15:22:41.688Z,1.48
2023-02-02T15:25:58.015Z,1.46
2023-02-02T15:28:35.985Z,1.37
2023-02-02T15:31:12.671Z,0.79
2023-02-02T15:33:44.042Z,0.88
2023-02-02T15:36:18.599Z,1.08
2023-02-02T15:38:48.636Z,0.76
2023-02-02T15:41:27.432Z,0.98
2023-02-02T15:43:54.568Z,0.63
2023-02-02T15:46:26.380Z,0.98
2023-02-02T15:49:35.098Z,1.09
2023-02-02T15:52:18.989Z,0.93
2023-02-02T15:54:52.648Z,0.63
2023-02-02T15:57:34.864Z,0.91
2023-02-02T16:00:22.749Z,1.02
2023-02-02T16:02:54.712Z,1.16
2023-02-02T16:05:31.913Z,1.10
2023-02-02T16:08:05.780Z,0.71
2023-02-02T16:10:34.195Z,0.74
2023-02-02T16:13:01.621Z,0.98
2023-02-02T16:15:30.199Z,0.79
2023-02-02T16:18:13.484Z,0.97
2023-02-02T16:20:42.155Z,0.96
2023-02-02T16:23:15.113Z,1.21
2023-02-02T16:25:54.411Z,1.04
2023-02-02T16:28:22.430Z,0.57
2023-02-02T16:30:51.809Z,1.09
2023-02-02T16:33:28.215Z,1.23
2023-02-02T16:35:55.670Z,0.75
2023-02-02T16:38:26.777Z,1.20
2023-02-02T16:41:10.338Z,1.18
2023-02-02T16:43:39.675Z,1.13
2023-02-02T16:46:12.906Z,1.11
2023-02-02T16:48:55.604Z,0.75
2023-02-02T16:51:26.540Z,1.20
2023-02-02T16:53:59.488Z,1.38
2023-02-02T16:56:37.341Z,1.37
2023-02-02T16:59:35.291Z,1.41
2023-02-02T17:02:30.013Z,1.34
2023-02-02T17:05:02.272Z,1.02
2023-02-02T17:07:29.846Z,1.30
2023-02-02T17:10:16.711Z,1.36
2023-02-02T17:12:45.604Z,1.38
2023-02-02T17:15:18.413Z,1.36
2023-02-02T17:17:49.459Z,1.00
2023-02-02T17:20:17.455Z,1.02
2023-02-02T17:22:49.928Z,0.91
2023-02-02T17:25:41.927Z,1.16
2023-02-02T17:28:16.062Z,1.25
2023-02-02T17:30:45.645Z,0.87
2023-02-02T17:33:17.212Z,1.28
2023-02-02T17:35:54.227Z,0.76
2023-02-02T17:38:24.361Z,1.21
2023-02-02T17:40:51.548Z,1.31
2023-02-02T17:43:18.291Z,1.26
2023-02-02T17:45:45.125Z,1.23
2023-02-02T17:48:13.131Z,1.27
2023-02-02T17:50:41.549Z,0.90
2023-02-02T17:53:21.019Z,1.24
2023-02-02T17:55:49.852Z,0.93
2023-02-02T17:58:17.790Z,1.16
2023-02-02T18:00:53.202Z,1.09
2023-02-02T18:03:26.603Z,1.08
2023-02-02T18:05:53.335Z,1.27
2023-02-02T18:08:20.405Z,1.34
2023-02-02T18:10:47.153Z,0.66
2023-02-02T18:13:16.125Z,1.07
2023-02-02T18:15:43.919Z,1.51
2023-02-02T18:18:12.506Z,1.48
2023-02-02T18:20:48.101Z,1.53
2023-02-02T18:23:16.621Z,1.45
2023-02-02T18:25:43.307Z,1.12
2023-02-02T18:28:11.005Z,1.35
2023-02-02T18:30:39.133Z,0.70
2023-02-02T18:33:08.484Z,1.33
2023-02-02T18:35:36.052Z,1.07
2023-02-02T18:38:02.669Z,1.43
2023-02-02T18:40:29.327Z,0.82
2023-02-02T18:42:56.136Z,1.42
2023-02-02T18:45:22.942Z,1.39
2023-02-02T18:47:49.955Z,1.47
2023-02-02T18:50:17.264Z,1.49
2023-02-02T18:52:44.410Z,1.24
2023-02-02T18:55:11.124Z,1.04
2023-02-02T18:57:37.756Z,1.33
2023-02-02T19:00:05.384Z,1.01
2023-02-02T19:02:32.264Z,1.16
2023-02-02T19:05:17.707Z,1.45
2023-02-02T19:07:56.418Z,1.50
2023-02-02T19:10:26.325Z,1.22
2023-02-02T19:13:02.561Z,1.45
2023-02-02T19:15:32.227Z,1.16
2023-02-02T19:17:58.937Z,1.09
2023-02-02T19:20:30.793Z,1.49
2023-02-02T19:23:07.132Z,1.45
2023-02-02T19:25:33.925Z,1.39
2023-02-02T19:28:09.216Z,1.02
2023-02-02T19:30:45.575Z,1.24
2023-02-02T19:33:14.357Z,1.08
2023-02-02T19:35:41.744Z,1.45
2023-02-02T19:38:13.378Z,1.37
2023-02-02T19:40:41.798Z,1.43
2023-02-02T19:43:26.291Z,1.45
2023-02-02T19:45:54.135Z,1.36
2023-02-02T19:48:24.362Z,1.14
2023-02-02T19:50:50.982Z,1.40
2023-02-02T19:53:23.728Z,1.37
2023-02-02T19:55:51.626Z,1.35
2023-02-02T19:58:22.672Z,1.39
2023-02-02T20:00:51.450Z,1.27
2023-02-02T20:03:24.611Z,1.47
2023-02-02T20:05:52.837Z,1.43
2023-02-02T20:08:29.002Z,1.44
2023-02-02T20:11:00.766Z,1.12
2023-02-02T20:13:42.300Z,1.45
2023-02-02T20:16:23.264Z,1.51
2023-02-02T20:18:55.578Z,1.49
2023-02-02T20:21:25.033Z,1.49
2023-02-02T20:23:52.052Z,1.46
2023-02-02T20:26:23.640Z,1.41
2023-02-02T20:28:52.667Z,1.44
2023-02-02T20:31:23.140Z,1.40
2023-02-02T20:33:55.483Z,1.35
2023-02-02T20:36:31.551Z,1.45
2023-02-02T20:39:12.560Z,1.18
2023-02-02T20:41:39.177Z,1.38
2023-02-02T20:44:05.879Z,1.48
2023-02-02T20:46:32.490Z,1.41
2023-02-02T20:48:59.115Z,1.56
2023-02-02T20:51:25.731Z,1.49
2023-02-02T20:53:55.632Z,1.69
2023-02-02T20:56:23.240Z,1.54
2023-02-02T20:58:51.237Z,1.74
2023-02-02T21:01:19.295Z,1.84
2023-02-02T21:03:45.981Z,1.61
2023-02-02T21:06:12.690Z,1.61
2023-02-02T21:08:39.466Z,1.46
2023-02-02T21:11:06.100Z,1.55
2023-02-02T21:13:32.828Z,1.51
2023-02-02T21:15:59.531Z,1.67
2023-02-02T21:18:26.121Z,1.61
2023-02-02T21:20:52.820Z,1.73
2023-02-02T21:23:19.465Z,1.64
2023-02-02T21:25:46.114Z,1.69
2023-02-02T21:28:13.247Z,1.64
2023-02-02T21:30:40.161Z,1.78
2023-02-02T21:33:07.073Z,1.74
2023-02-02T21:35:35.614Z,1.64
2023-02-02T21:38:10.191Z,1.56
2023-02-02T21:40:36.769Z,1.60
2023-02-02T21:43:13.948Z,1.58
2023-02-02T21:45:42.669Z,1.63
2023-02-02T21:48:27.824Z,1.48
2023-02-02T21:50:54.426Z,1.26
2023-02-02T21:53:24.104Z,1.20
2023-02-02T21:56:02.959Z,1.40
2023-02-02T21:58:35.266Z,1.49
2023-02-02T22:01:16.956Z,1.51
2023-02-02T22:03:46.738Z,1.33
2023-02-02T22:06:13.417Z,1.56
2023-02-02T22:08:40.148Z,1.57
2023-02-02T22:11:24.173Z,1.55
2023-02-02T22:13:52.102Z,1.62
2023-02-02T22:16:20.863Z,1.56
2023-02-02T22:18:47.834Z,1.75
2023-02-02T22:21:18.003Z,1.79
2023-02-02T22:23:46.264Z,1.69
2023-02-02T22:26:27.705Z,1.64
2023-02-02T22:28:54.298Z,1.42
2023-02-02T22:31:20.944Z,1.58
2023-02-02T22:33:47.608Z,1.63
2023-02-02T22:36:14.255Z,1.39
2023-02-02T22:38:40.857Z,1.60
2023-02-02T22:41:09.032Z,1.76
2023-02-02T22:43:35.725Z,1.85
2023-02-02T22:46:02.331Z,1.75
2023-02-02T22:48:29.038Z,1.90
2023-02-02T22:50:55.633Z,1.74
2023-02-02T22:53:22.408Z,1.93
2023-02-02T22:55:56.340Z,1.82
2023-02-02T22:58:24.990Z,1.96
2023-02-02T23:00:51.559Z,1.78
2023-02-02T23:03:18.268Z,1.89
2023-02-02T23:05:44.904Z,1.96
2023-02-02T23:08:11.532Z,1.91
2023-02-02T23:10:38.395Z,1.90
2023-02-02T23:13:06.204Z,1.99
2023-02-02T23:15:33.803Z,1.93
2023-02-02T23:18:00.980Z,1.85
2023-02-02T23:20:27.962Z,1.65
2023-02-02T23:22:54.717Z,1.81
2023-02-02T23:25:22.118Z,1.69
2023-02-02T23:27:50.315Z,1.57
2023-02-02T23:30:17.633Z,1.58
2023-02-02T23:32:44.221Z,1.76
2023-02-02T23:35:11.266Z,1.45
2023-02-02T23:37:38.356Z,1.66
2023-02-02T23:40:05.586Z,1.52
2023-02-02T23:42:32.247Z,1.49
2023-02-02T23:44:58.857Z,1.56
2023-02-02T23:47:25.788Z,1.40
2023-02-02T23:49:52.564Z,1.47
2023-02-02T23:52:19.298Z,1.20
2023-02-02T23:54:46.033Z,1.28
2023-02-02T23:57:12.756Z,1.40
2023-02-02T23:59:39.361Z,1.18
